Time;durP1;ratioP1;P1;durP2;ratioP2;P2;SDS_P1;SDS_P2;PMS_P1;PMS_P2;Temp;Humidity;BMP_temperature;BMP_pressure;BME280_temperature;BME280_humidity;BME280_pressure;Samples;Min_cycle;Max_cycle;Signal;HPM_P1;HPM_P2
2022/09/30 00:01:24;;;;;;;8.00;4.47;;;20.50;54.20;;;;;;5019311;28;20452;-83
2022/09/30 00:03:53;;;;;;;6.50;4.57;;;20.50;54.20;;;;;;5019175;28;20499;-84
2022/09/30 00:06:21;;;;;;;6.83;4.30;;;20.50;54.10;;;;;;5018328;28;20488;-83
2022/09/30 00:08:50;;;;;;;7.70;4.03;;;20.50;54.20;;;;;;5019342;28;20429;-83
2022/09/30 00:11:24;;;;;;;6.27;4.30;;;20.50;54.20;;;;;;5019019;28;20485;-83
2022/09/30 00:13:54;;;;;;;7.03;4.07;;;20.50;54.20;;;;;;5019215;28;20463;-83
2022/09/30 00:16:22;;;;;;;5.90;4.63;;;20.50;54.20;;;;;;5017196;28;20442;-83
2022/09/30 00:18:51;;;;;;;8.03;4.50;;;20.50;54.20;;;;;;5018576;28;20447;-83
2022/09/30 00:21:19;;;;;;;6.30;4.40;;;20.40;54.40;;;;;;5018233;28;20445;-83
2022/09/30 00:23:48;;;;;;;4.77;4.30;;;20.50;54.40;;;;;;5018768;28;20425;-83
2022/09/30 00:26:21;;;;;;;6.80;4.20;;;20.40;54.70;;;;;;5018734;28;20451;-83
2022/09/30 00:28:50;;;;;;;9.43;4.77;;;20.40;54.50;;;;;;5018722;28;20467;-83
2022/09/30 00:31:19;;;;;;;9.13;4.70;;;20.40;54.50;;;;;;5017582;28;20485;-83
2022/09/30 00:34:05;;;;;;;6.33;4.50;;;20.40;54.40;;;;;;5005588;28;20540;-83
2022/09/30 00:36:34;;;;;;;7.57;4.90;;;20.40;54.40;;;;;;5009380;28;20533;-83
2022/09/30 00:39:04;;;;;;;6.67;4.60;;;20.30;54.50;;;;;;5007907;28;20457;-84
2022/09/30 00:41:34;;;;;;;6.10;4.90;;;20.30;54.50;;;;;;5008539;28;20559;-84
2022/09/30 00:44:02;;;;;;;7.03;4.90;;;20.30;54.70;;;;;;5007639;28;20445;-84
2022/09/30 00:46:33;;;;;;;6.43;5.00;;;20.30;54.70;;;;;;4999525;28;20462;-83
2022/09/30 00:49:13;;;;;;;6.30;4.93;;;20.30;54.60;;;;;;5007194;28;20454;-83
2022/09/30 00:51:44;;;;;;;9.30;5.87;;;20.20;54.50;;;;;;5006566;28;20484;-83
2022/09/30 00:54:13;;;;;;;7.03;5.13;;;20.20;54.60;;;;;;5007146;28;20555;-84
2022/09/30 00:56:44;;;;;;;6.07;5.17;;;20.20;54.70;;;;;;5007532;28;20449;-83
2022/09/30 00:59:14;;;;;;;10.00;5.90;;;20.10;54.90;;;;;;5006976;28;20447;-83
2022/09/30 01:01:43;;;;;;;7.50;5.27;;;20.20;54.80;;;;;;4999159;28;20477;-83
2022/09/30 01:04:12;;;;;;;8.70;6.50;;;20.20;54.70;;;;;;5007765;28;20441;-83
2022/09/30 01:06:41;;;;;;;9.03;5.80;;;20.10;54.80;;;;;;5007811;28;20454;-84
2022/09/30 01:09:10;;;;;;;6.40;5.13;;;20.10;54.70;;;;;;5008964;28;20496;-85
2022/09/30 01:11:39;;;;;;;5.30;4.77;;;20.10;54.90;;;;;;4995913;28;20477;-84
2022/09/30 01:14:10;;;;;;;7.27;5.70;;;20.10;54.90;;;;;;5013932;28;20517;-86
2022/09/30 01:16:54;;;;;;;5.33;4.73;;;20.00;54.80;;;;;;5016607;28;20476;-84
2022/09/30 01:19:31;;;;;;;5.67;4.47;;;20.00;54.80;;;;;;5012480;28;20457;-84
2022/09/30 01:22:06;;;;;;;6.70;5.30;;;20.00;54.90;;;;;;5016852;28;20471;-85
2022/09/30 01:24:39;;;;;;;6.13;5.13;;;20.00;54.90;;;;;;5012680;28;20439;-86
2022/09/30 01:27:30;;;;;;;5.20;4.43;;;20.00;54.80;;;;;;5016810;28;20430;-85
2022/09/30 01:30:10;;;;;;;4.90;4.40;;;20.00;54.80;;;;;;5016720;28;20429;-85
2022/09/30 01:33:04;;;;;;;6.13;4.17;;;20.00;54.90;;;;;;5015896;28;20444;-84
2022/09/30 01:35:41;;;;;;;6.30;4.57;;;19.90;54.80;;;;;;5010491;28;20457;-84
2022/09/30 01:38:13;;;;;;;6.43;4.50;;;19.90;54.80;;;;;;5015205;28;20496;-84
2022/09/30 01:40:43;;;;;;;4.90;4.30;;;19.90;55.00;;;;;;5002317;28;20477;-84
2022/09/30 01:43:14;;;;;;;5.10;4.60;;;19.90;55.00;;;;;;5009211;28;20449;-84
2022/09/30 01:45:43;;;;;;;6.73;4.43;;;19.90;55.00;;;;;;5009434;28;20456;-85
2022/09/30 01:48:18;;;;;;;6.77;4.40;;;19.90;55.10;;;;;;5009863;28;20449;-85
2022/09/30 01:50:48;;;;;;;5.27;4.67;;;19.90;55.00;;;;;;5009258;28;20471;-84
2022/09/30 01:53:20;;;;;;;4.43;4.00;;;19.90;55.10;;;;;;5006488;28;20460;-84
2022/09/30 01:55:50;;;;;;;5.80;4.70;;;19.80;54.80;;;;;;5007236;28;20461;-85
2022/09/30 01:58:25;;;;;;;7.07;4.70;;;19.80;54.90;;;;;;5006564;28;20525;-84
2022/09/30 02:00:54;;;;;;;5.27;4.50;;;19.80;55.20;;;;;;5001954;28;20504;-84
2022/09/30 02:03:28;;;;;;;8.17;4.53;;;19.70;55.10;;;;;;5004527;28;20456;-84
2022/09/30 02:06:02;;;;;;;4.60;4.20;;;19.80;55.10;;;;;;5006022;28;20440;-83
2022/09/30 02:08:33;;;;;;;7.97;4.40;;;19.70;55.00;;;;;;5005147;28;20457;-84
2022/09/30 02:11:02;;;;;;;4.13;3.83;;;19.70;55.30;;;;;;5007140;28;20472;-84
2022/09/30 02:13:35;;;;;;;4.50;4.10;;;19.70;55.40;;;;;;5006151;28;20464;-84
2022/09/30 02:16:11;;;;;;;5.77;4.07;;;19.70;55.00;;;;;;5005793;28;20476;-83
2022/09/30 02:18:42;;;;;;;5.50;4.10;;;19.70;55.30;;;;;;5006698;28;20453;-84
2022/09/30 02:21:10;;;;;;;8.23;4.10;;;19.70;55.10;;;;;;5005437;28;20477;-84
2022/09/30 02:23:40;;;;;;;4.70;4.13;;;19.60;55.20;;;;;;5003006;28;20466;-84
2022/09/30 02:26:20;;;;;;;6.67;4.30;;;19.60;55.30;;;;;;5002758;28;20465;-84
2022/09/30 02:28:49;;;;;;;5.00;3.90;;;19.60;55.40;;;;;;5000328;28;20464;-84
2022/09/30 02:31:18;;;;;;;4.27;3.87;;;19.50;55.10;;;;;;5001730;28;20480;-84
2022/09/30 02:33:48;;;;;;;4.50;4.10;;;19.50;55.20;;;;;;5005925;28;20449;-84
2022/09/30 02:36:19;;;;;;;5.00;3.97;;;19.50;55.30;;;;;;5005002;28;20473;-84
2022/09/30 02:38:50;;;;;;;6.20;3.87;;;19.50;55.50;;;;;;5004061;28;20420;-84
2022/09/30 02:41:20;;;;;;;4.67;4.20;;;19.50;55.20;;;;;;4999578;28;20477;-83
2022/09/30 02:43:48;;;;;;;3.70;3.40;;;19.50;55.20;;;;;;5005462;28;20445;-84
2022/09/30 02:46:21;;;;;;;4.00;3.70;;;19.50;55.40;;;;;;5007332;28;20460;-83
2022/09/30 02:48:56;;;;;;;5.43;4.40;;;19.40;55.10;;;;;;4999673;28;20502;-83
2022/09/30 02:51:28;;;;;;;3.70;3.40;;;19.40;55.40;;;;;;5007760;28;20467;-84
2022/09/30 02:54:02;;;;;;;4.50;3.77;;;19.40;55.40;;;;;;5005886;28;20456;-84
2022/09/30 02:56:34;;;;;;;4.20;3.80;;;19.30;55.30;;;;;;4997243;28;20469;-84
2022/09/30 02:59:02;;;;;;;3.70;3.40;;;19.40;55.50;;;;;;5001101;28;20521;-84
2022/09/30 03:01:30;;;;;;;3.50;3.20;;;19.30;55.50;;;;;;5008749;28;20468;-84
2022/09/30 03:04:01;;;;;;;5.03;3.97;;;19.30;55.40;;;;;;5008870;28;20440;-83
2022/09/30 03:06:30;;;;;;;6.10;3.83;;;19.30;55.50;;;;;;5008053;28;20449;-83
2022/09/30 03:08:58;;;;;;;4.67;3.67;;;19.30;55.50;;;;;;5006093;28;20448;-84
2022/09/30 03:11:27;;;;;;;3.77;3.37;;;19.30;55.50;;;;;;5002834;28;20509;-84
2022/09/30 03:14:10;;;;;;;4.10;3.70;;;19.20;55.40;;;;;;5007834;28;20456;-84
2022/09/30 03:16:49;;;;;;;4.30;3.67;;;19.20;55.20;;;;;;5010764;28;20544;-84
2022/09/30 03:19:27;;;;;;;3.70;3.27;;;19.20;55.60;;;;;;5005618;28;20463;-83
2022/09/30 03:22:04;;;;;;;6.93;3.80;;;19.20;55.60;;;;;;5004570;28;20473;-84
2022/09/30 03:24:42;;;;;;;4.00;3.60;;;19.20;55.70;;;;;;5003894;28;20427;-83
2022/09/30 03:27:13;;;;;;;4.40;3.53;;;19.20;55.60;;;;;;4997371;28;20456;-84
2022/09/30 03:29:46;;;;;;;5.03;4.03;;;19.20;55.60;;;;;;4989371;28;20463;-84
2022/09/30 03:32:22;;;;;;;4.07;3.77;;;19.10;55.60;;;;;;5003340;28;20446;-84
2022/09/30 03:35:00;;;;;;;3.93;3.57;;;19.10;55.70;;;;;;5004721;28;20453;-85
2022/09/30 03:37:30;;;;;;;4.87;3.60;;;19.10;55.60;;;;;;5004638;28;20473;-85
2022/09/30 03:40:00;;;;;;;4.53;3.33;;;19.10;55.60;;;;;;5004210;28;20480;-85
2022/09/30 03:42:29;;;;;;;5.30;3.97;;;19.10;55.80;;;;;;5006912;28;20456;-83
2022/09/30 03:45:01;;;;;;;3.50;3.20;;;19.10;55.70;;;;;;5006515;28;20453;-85
2022/09/30 03:47:30;;;;;;;5.13;3.33;;;19.10;55.70;;;;;;5001982;28;20461;-84
2022/09/30 03:50:02;;;;;;;3.40;3.10;;;19.10;55.90;;;;;;5008791;28;20955;-84
2022/09/30 03:52:31;;;;;;;5.53;4.07;;;19.10;55.60;;;;;;5007729;28;20469;-84
2022/09/30 03:55:01;;;;;;;3.67;3.37;;;19.00;55.60;;;;;;5008346;28;20511;-84
2022/09/30 03:57:29;;;;;;;3.57;3.23;;;19.10;55.60;;;;;;5007798;28;20476;-84
2022/09/30 04:00:00;;;;;;;3.97;3.50;;;19.10;55.80;;;;;;5002264;28;20461;-82
2022/09/30 04:02:28;;;;;;;4.57;4.07;;;19.10;55.90;;;;;;5007728;28;20449;-84
2022/09/30 04:04:57;;;;;;;4.00;3.43;;;19.10;55.80;;;;;;5009193;28;20441;-84
2022/09/30 04:07:27;;;;;;;3.43;3.13;;;19.10;55.70;;;;;;5008706;28;20440;-85
2022/09/30 04:09:56;;;;;;;3.37;3.07;;;19.10;55.50;;;;;;5008529;28;20452;-84
2022/09/30 04:12:24;;;;;;;4.77;3.10;;;19.10;55.60;;;;;;5007851;28;20453;-84
2022/09/30 04:14:54;;;;;;;3.33;3.00;;;19.10;55.70;;;;;;5008103;28;20452;-84
2022/09/30 04:17:25;;;;;;;3.53;3.23;;;19.10;55.60;;;;;;5007408;28;20472;-84
2022/09/30 04:19:53;;;;;;;3.23;3.03;;;19.00;55.50;;;;;;5000917;28;20477;-84
2022/09/30 04:22:21;;;;;;;3.70;3.00;;;19.10;55.60;;;;;;5006321;28;20453;-84
2022/09/30 04:24:55;;;;;;;3.30;2.97;;;19.10;55.70;;;;;;5006033;28;20434;-85
2022/09/30 04:27:23;;;;;;;3.30;3.10;;;19.10;55.90;;;;;;5005568;28;20450;-84
2022/09/30 04:29:51;;;;;;;3.57;3.27;;;19.00;55.60;;;;;;5009229;28;20472;-84
2022/09/30 04:32:21;;;;;;;2.90;2.70;;;19.00;55.60;;;;;;5009300;28;20450;-84
2022/09/30 04:34:50;;;;;;;3.67;3.30;;;19.00;55.90;;;;;;5005870;28;20459;-84
2022/09/30 04:37:18;;;;;;;10.43;2.87;;;19.00;55.60;;;;;;5006188;28;20473;-84
2022/09/30 04:39:46;;;;;;;3.20;2.90;;;19.00;55.80;;;;;;5008590;28;20446;-84
2022/09/30 04:42:16;;;;;;;3.63;3.23;;;19.00;55.90;;;;;;5009489;28;20430;-84
2022/09/30 04:44:44;;;;;;;2.87;2.67;;;19.00;55.80;;;;;;5009126;28;20467;-84
2022/09/30 04:47:14;;;;;;;3.50;3.20;;;19.00;55.80;;;;;;5009516;28;20444;-83
2022/09/30 04:49:42;;;;;;;4.50;2.90;;;19.00;55.80;;;;;;5005259;28;20488;-84
2022/09/30 04:52:10;;;;;;;8.63;2.67;;;19.00;55.80;;;;;;5004609;28;20450;-83
2022/09/30 04:54:38;;;;;;;2.90;2.70;;;19.00;56.00;;;;;;4987721;28;20522;-84
2022/09/30 04:57:06;;;;;;;3.53;3.23;;;19.00;55.70;;;;;;4989029;28;20466;-85
2022/09/30 04:59:36;;;;;;;3.20;2.90;;;19.00;55.60;;;;;;4989835;28;20442;-84
2022/09/30 05:02:05;;;;;;;5.47;2.83;;;19.00;55.90;;;;;;4988098;28;20442;-85
2022/09/30 05:04:33;;;;;;;3.00;2.80;;;19.00;55.90;;;;;;4989196;28;20473;-84
2022/09/30 05:07:02;;;;;;;3.20;3.00;;;18.90;55.60;;;;;;4988699;28;20795;-84
2022/09/30 05:09:31;;;;;;;3.00;2.80;;;19.00;55.90;;;;;;4998516;28;20453;-84
2022/09/30 05:12:01;;;;;;;3.37;3.17;;;18.90;55.70;;;;;;5006889;28;20491;-84
2022/09/30 05:14:29;;;;;;;3.57;3.00;;;18.90;55.80;;;;;;5003856;28;20441;-85
2022/09/30 05:17:00;;;;;;;2.80;2.60;;;18.90;56.00;;;;;;5003324;28;20500;-85
2022/09/30 05:19:29;;;;;;;3.30;2.90;;;18.90;55.80;;;;;;5005272;28;21071;-84
2022/09/30 05:22:01;;;;;;;4.50;2.70;;;18.90;56.00;;;;;;5003966;28;20465;-84
2022/09/30 05:24:30;;;;;;;2.63;2.53;;;18.90;56.10;;;;;;5003471;28;20475;-84
2022/09/30 05:26:58;;;;;;;6.80;2.77;;;18.90;56.10;;;;;;5002044;28;20493;-84
2022/09/30 05:29:28;;;;;;;5.57;3.00;;;18.90;56.00;;;;;;5004228;28;20446;-84
2022/09/30 05:31:56;;;;;;;4.33;3.03;;;18.90;55.80;;;;;;5005691;28;20469;-84
2022/09/30 05:34:27;;;;;;;3.10;2.90;;;18.90;55.70;;;;;;5006159;28;20517;-84
2022/09/30 05:36:55;;;;;;;2.93;2.73;;;18.90;56.10;;;;;;5007007;28;20515;-84
2022/09/30 05:39:23;;;;;;;4.03;2.80;;;18.90;55.80;;;;;;5004618;28;20449;-84
2022/09/30 05:41:52;;;;;;;3.20;2.77;;;18.80;56.00;;;;;;5003782;28;20468;-82
2022/09/30 05:44:20;;;;;;;2.70;2.50;;;18.90;56.00;;;;;;4997194;28;20461;-84
2022/09/30 05:46:48;;;;;;;2.93;2.73;;;18.80;56.00;;;;;;5002921;28;20438;-82
2022/09/30 05:49:17;;;;;;;3.00;2.80;;;18.80;56.10;;;;;;5001789;28;20449;-84
2022/09/30 05:51:46;;;;;;;3.40;3.10;;;18.80;55.80;;;;;;5003822;28;20504;-83
2022/09/30 05:54:14;;;;;;;2.60;2.40;;;18.80;56.00;;;;;;5001288;28;20449;-84
2022/09/30 05:56:43;;;;;;;4.07;2.70;;;18.80;56.00;;;;;;5002253;28;20433;-84
2022/09/30 05:59:12;;;;;;;3.00;2.80;;;18.70;56.10;;;;;;5000323;28;20508;-84
2022/09/30 06:01:41;;;;;;;3.33;3.07;;;18.80;56.10;;;;;;5002398;28;20461;-83
2022/09/30 06:04:09;;;;;;;2.90;2.70;;;18.80;56.00;;;;;;5002877;28;20449;-84
2022/09/30 06:06:37;;;;;;;2.97;2.77;;;18.70;55.90;;;;;;5001566;28;20434;-83
2022/09/30 06:09:07;;;;;;;3.27;3.07;;;18.70;56.30;;;;;;4999905;28;20459;-83
2022/09/30 06:11:35;;;;;;;2.93;2.73;;;18.70;56.10;;;;;;5000858;28;20465;-83
2022/09/30 06:14:06;;;;;;;2.70;2.50;;;18.70;56.00;;;;;;4998097;28;20524;-84
2022/09/30 06:16:35;;;;;;;3.70;3.40;;;18.70;56.00;;;;;;5002362;28;20446;-83
2022/09/30 06:19:05;;;;;;;4.60;3.00;;;18.80;56.40;;;;;;5004055;28;20473;-83
2022/09/30 06:21:33;;;;;;;3.20;3.00;;;18.80;56.00;;;;;;5003343;28;20465;-82
2022/09/30 06:24:01;;;;;;;3.70;3.40;;;18.70;55.90;;;;;;4996018;28;20517;-84
2022/09/30 06:26:31;;;;;;;3.40;3.10;;;18.70;56.00;;;;;;5007772;28;20472;-82
2022/09/30 06:28:59;;;;;;;3.20;3.00;;;18.70;55.90;;;;;;5005755;28;20453;-84
2022/09/30 06:31:27;;;;;;;2.90;2.70;;;18.70;56.10;;;;;;5001404;28;20473;-84
2022/09/30 06:33:56;;;;;;;3.63;3.30;;;18.70;56.00;;;;;;5008084;28;20501;-84
2022/09/30 06:36:24;;;;;;;2.50;2.40;;;18.80;56.00;;;;;;5010213;28;20460;-85
2022/09/30 06:38:53;;;;;;;3.07;2.87;;;18.80;56.00;;;;;;5010987;28;20468;-84
2022/09/30 06:41:23;;;;;;;3.07;2.73;;;18.80;56.00;;;;;;5010409;28;20473;-85
2022/09/30 06:43:53;;;;;;;3.20;2.93;;;18.80;56.00;;;;;;5008210;28;20456;-84
2022/09/30 06:46:24;;;;;;;2.90;2.70;;;18.80;56.20;;;;;;5006901;28;20449;-84
2022/09/30 06:48:58;;;;;;;2.90;2.70;;;18.80;56.00;;;;;;5006752;28;20449;-84
2022/09/30 06:51:42;;;;;;;2.70;2.50;;;18.80;56.00;;;;;;5005434;28;20476;-83
2022/09/30 06:54:10;;;;;;;2.60;2.40;;;18.80;56.00;;;;;;5004857;28;20441;-84
2022/09/30 06:56:40;;;;;;;3.07;2.87;;;18.80;55.80;;;;;;5006672;28;20479;-85
2022/09/30 06:59:10;;;;;;;3.83;3.53;;;18.70;56.00;;;;;;5004446;28;20480;-84
2022/09/30 07:01:38;;;;;;;4.20;3.80;;;18.80;56.00;;;;;;4998901;28;20504;-84
2022/09/30 07:04:08;;;;;;;4.30;3.60;;;18.70;55.90;;;;;;5002709;28;20461;-85
2022/09/30 07:06:37;;;;;;;4.90;4.30;;;18.70;56.70;;;;;;5007116;28;20435;-84
2022/09/30 07:09:06;;;;;;;5.10;4.40;;;18.80;56.00;;;;;;5006407;28;20441;-83
2022/09/30 07:11:35;;;;;;;4.33;3.93;;;18.80;55.90;;;;;;5004358;28;20500;-84
2022/09/30 07:14:04;;;;;;;5.47;4.87;;;18.80;56.00;;;;;;5003828;28;20457;-84
2022/09/30 07:16:34;;;;;;;6.13;5.23;;;18.80;56.00;;;;;;5005758;28;20457;-85
2022/09/30 07:19:02;;;;;;;5.47;4.77;;;18.80;56.10;;;;;;5002476;28;20474;-84
2022/09/30 07:21:31;;;;;;;6.63;5.00;;;18.80;56.00;;;;;;4996826;28;20454;-84
2022/09/30 07:23:59;;;;;;;5.23;4.73;;;18.80;56.00;;;;;;4994332;28;20460;-84
2022/09/30 07:26:28;;;;;;;6.07;5.30;;;18.70;55.90;;;;;;5005896;28;20437;-84
2022/09/30 07:28:56;;;;;;;8.40;5.43;;;18.80;56.00;;;;;;5003370;28;20461;-84
2022/09/30 07:31:25;;;;;;;5.50;4.90;;;18.80;56.00;;;;;;5006102;28;20472;-84
2022/09/30 07:34:05;;;;;;;5.97;5.10;;;18.80;56.10;;;;;;5007934;28;20445;-85
2022/09/30 07:36:36;;;;;;;6.40;5.60;;;18.80;56.00;;;;;;5006925;28;20468;-85
2022/09/30 07:39:06;;;;;;;5.83;5.03;;;18.80;56.00;;;;;;5003255;28;20504;-82
2022/09/30 07:41:34;;;;;;;5.40;4.87;;;18.80;56.00;;;;;;5006504;28;20489;-84
2022/09/30 07:44:05;;;;;;;6.20;5.23;;;18.80;56.00;;;;;;5004612;28;20448;-83
2022/09/30 07:46:34;;;;;;;6.87;5.93;;;18.90;56.10;;;;;;4994678;28;20453;-84
2022/09/30 07:49:05;;;;;;;5.67;4.90;;;18.90;55.80;;;;;;5002576;28;20453;-83
2022/09/30 07:51:34;;;;;;;6.23;4.93;;;19.00;56.20;;;;;;5002818;28;20468;-83
2022/09/30 07:54:04;;;;;;;6.23;5.60;;;19.00;55.80;;;;;;5003063;28;20441;-83
2022/09/30 07:56:33;;;;;;;5.33;4.83;;;19.10;55.80;;;;;;4997385;28;20504;-83
2022/09/30 07:59:24;;;;;;;6.03;4.67;;;19.20;56.00;;;;;;4997095;28;20470;-83
2022/09/30 08:01:52;;;;;;;6.23;5.17;;;19.30;55.90;;;;;;5005551;28;20465;-82
2022/09/30 08:04:23;;;;;;;6.20;5.43;;;19.50;55.90;;;;;;5009685;28;20472;-84
2022/09/30 08:06:52;;;;;;;5.83;5.33;;;19.60;55.90;;;;;;5003456;28;20449;-82
2022/09/30 08:09:21;;;;;;;5.87;5.23;;;19.80;55.90;;;;;;5018079;28;20540;-82
2022/09/30 08:11:50;;;;;;;5.33;4.83;;;20.00;55.90;;;;;;5002186;28;20481;-81
2022/09/30 08:14:19;;;;;;;5.83;4.53;;;20.20;55.80;;;;;;5006676;28;20462;-81
2022/09/30 08:16:47;;;;;;;6.20;5.17;;;20.40;55.80;;;;;;4997981;28;20457;-83
2022/09/30 08:19:17;;;;;;;5.30;4.80;;;20.50;55.70;;;;;;5008752;28;20845;-83
2022/09/30 08:22:12;;;;;;;6.20;4.90;;;20.80;55.90;;;;;;5001445;28;20484;-83
2022/09/30 08:24:41;;;;;;;5.07;4.60;;;20.90;55.80;;;;;;5002427;28;20450;-82
2022/09/30 08:27:09;;;;;;;4.60;4.20;;;21.20;55.90;;;;;;5005519;28;20496;-82
2022/09/30 08:29:37;;;;;;;4.93;4.23;;;21.40;55.80;;;;;;5002090;28;20472;-81
2022/09/30 08:32:24;;;;;;;4.80;4.40;;;21.60;55.90;;;;;;5007341;28;20500;-82
2022/09/30 08:34:52;;;;;;;4.50;4.10;;;21.90;56.00;;;;;;5005066;28;20516;-81
2022/09/30 08:37:22;;;;;;;5.10;4.60;;;22.10;55.80;;;;;;5008674;28;20457;-81
2022/09/30 08:39:50;;;;;;;5.17;4.33;;;22.30;55.60;;;;;;5002108;28;20484;-81
2022/09/30 08:42:28;;;;;;;4.00;3.70;;;22.50;55.60;;;;;;5006032;28;20462;-83
2022/09/30 08:45:09;;;;;;;4.37;3.97;;;22.80;55.50;;;;;;5005970;28;20946;-82
2022/09/30 08:47:43;;;;;;;4.90;3.37;;;23.00;55.40;;;;;;5000930;28;20464;-83
2022/09/30 08:50:16;;;;;;;3.97;3.53;;;23.20;55.40;;;;;;5007410;28;20495;-82
2022/09/30 08:52:47;;;;;;;3.87;3.57;;;23.40;55.20;;;;;;5010387;28;20429;-83
2022/09/30 08:55:21;;;;;;;3.80;3.50;;;23.50;55.10;;;;;;4998927;28;20520;-83
2022/09/30 08:57:49;;;;;;;3.30;3.10;;;23.80;55.10;;;;;;5003267;28;20520;-82
2022/09/30 09:00:18;;;;;;;3.57;3.30;;;23.90;55.00;;;;;;5003469;28;20478;-82
2022/09/30 09:02:48;;;;;;;3.60;3.30;;;24.20;54.80;;;;;;5002576;28;20441;-82
2022/09/30 09:05:24;;;;;;;3.43;3.23;;;24.40;54.70;;;;;;5006890;28;20438;-83
2022/09/30 09:07:59;;;;;;;3.30;3.10;;;24.60;54.60;;;;;;5013326;28;20416;-83
2022/09/30 09:10:31;;;;;;;3.20;3.00;;;24.90;54.30;;;;;;5004709;28;20488;-82
2022/09/30 09:13:02;;;;;;;3.13;2.93;;;25.10;54.20;;;;;;5000804;28;20467;-81
2022/09/30 09:15:55;;;;;;;3.70;3.40;;;25.40;53.80;;;;;;5003720;28;20444;-78
2022/09/30 09:18:41;;;;;;;2.37;2.27;;;25.60;53.10;;;;;;4985879;28;20453;-78
2022/09/30 09:21:19;;;;;;;4.40;1.60;;;25.80;51.80;;;;;;4993088;28;20439;-78
2022/09/30 09:23:49;;;;;;;2.60;1.53;;;25.80;50.80;;;;;;4993461;28;20415;-78
2022/09/30 09:26:17;;;;;;;1.70;1.60;;;25.90;50.20;;;;;;4993660;28;20435;-81
2022/09/30 09:28:49;;;;;;;1.97;1.87;;;26.00;49.60;;;;;;4997196;28;20453;-78
2022/09/30 09:31:20;;;;;;;3.83;1.93;;;26.10;49.60;;;;;;4988619;28;20519;-79
2022/09/30 09:33:49;;;;;;;1.90;1.80;;;26.20;49.00;;;;;;4990767;28;20453;-79
2022/09/30 09:36:25;;;;;;;1.50;1.40;;;26.30;48.50;;;;;;4992954;28;20435;-79
2022/09/30 09:39:03;;;;;;;3.47;1.70;;;26.30;48.40;;;;;;4986415;28;20440;-79
2022/09/30 09:41:36;;;;;;;1.60;1.50;;;26.40;48.00;;;;;;4989631;28;20479;-79
2022/09/30 09:44:08;;;;;;;2.90;1.60;;;26.60;48.10;;;;;;4985240;28;20457;-79
2022/09/30 09:46:40;;;;;;;2.63;1.60;;;26.70;47.60;;;;;;4986968;28;20427;-79
2022/09/30 09:49:28;;;;;;;2.90;1.47;;;26.80;47.50;;;;;;4983143;28;20454;-78
2022/09/30 09:52:22;;;;;;;9.00;1.80;;;26.80;47.00;;;;;;4991393;28;20477;-80
2022/09/30 09:54:55;;;;;;;2.00;1.70;;;26.70;46.80;;;;;;5001959;28;20440;-80
2022/09/30 09:57:28;;;;;;;3.17;1.80;;;26.60;47.10;;;;;;4998981;28;20496;-80
2022/09/30 09:59:57;;;;;;;2.80;1.60;;;26.60;47.30;;;;;;4998951;28;20446;-80
2022/09/30 10:02:30;;;;;;;2.03;1.73;;;26.70;46.90;;;;;;4998937;28;20954;-78
2022/09/30 10:05:02;;;;;;;1.77;1.50;;;26.80;46.90;;;;;;5003752;28;20445;-79
2022/09/30 10:07:31;;;;;;;2.00;1.90;;;26.80;46.80;;;;;;4999654;28;20429;-79
2022/09/30 10:10:09;;;;;;;1.73;1.50;;;26.80;46.50;;;;;;5006570;28;20501;-82
2022/09/30 10:12:37;;;;;;;4.93;1.90;;;26.80;46.70;;;;;;5005592;28;20513;-81
2022/09/30 10:15:20;;;;;;;5.50;1.50;;;26.90;46.60;;;;;;5004642;28;20434;-78
2022/09/30 10:17:53;;;;;;;2.23;1.47;;;27.00;46.10;;;;;;4988503;28;20425;-79
2022/09/30 10:20:25;;;;;;;2.27;1.57;;;27.10;46.00;;;;;;5002787;28;20451;-79
2022/09/30 10:23:04;;;;;;;2.00;1.77;;;27.30;45.90;;;;;;5000389;28;20428;-79
2022/09/30 10:25:33;;;;;;;2.43;1.57;;;27.40;45.20;;;;;;4994821;28;20960;-79
2022/09/30 10:28:02;;;;;;;1.57;1.50;;;27.50;45.10;;;;;;4993874;28;20426;-78
2022/09/30 10:30:42;;;;;;;3.83;1.87;;;27.30;44.90;;;;;;4995826;28;20477;-80
2022/09/30 10:33:19;;;;;;;1.57;1.47;;;27.10;45.30;;;;;;4985098;28;20441;-79
2022/09/30 10:35:56;;;;;;;1.60;1.43;;;27.20;46.00;;;;;;4985845;28;20437;-79
2022/09/30 10:38:27;;;;;;;2.50;1.70;;;27.30;45.30;;;;;;4995075;28;20441;-79
2022/09/30 10:40:57;;;;;;;4.10;1.77;;;27.50;45.40;;;;;;4993144;28;20451;-80
2022/09/30 10:43:27;;;;;;;5.33;1.60;;;27.60;45.10;;;;;;5003737;28;20420;-82
2022/09/30 10:45:55;;;;;;;1.60;1.50;;;27.60;44.80;;;;;;5016383;28;20412;-81
2022/09/30 10:48:43;;;;;;;1.93;1.40;;;27.50;44.60;;;;;;5010851;28;20457;-82
2022/09/30 10:51:21;;;;;;;3.93;1.70;;;27.30;44.90;;;;;;5009796;28;20494;-82
2022/09/30 10:53:50;;;;;;;2.40;1.37;;;27.00;45.20;;;;;;5002304;28;20454;-83
2022/09/30 10:56:34;;;;;;;1.40;1.40;;;26.90;45.60;;;;;;5009052;28;20437;-83
2022/09/30 10:59:01;;;;;;;4.90;1.70;;;26.80;46.10;;;;;;5016592;28;20404;-81
2022/09/30 11:01:31;;;;;;;3.17;1.80;;;26.90;45.80;;;;;;5010037;28;20452;-80
2022/09/30 11:04:03;;;;;;;7.10;1.40;;;27.20;45.70;;;;;;5015494;28;20438;-80
2022/09/30 11:06:32;;;;;;;4.30;1.80;;;27.40;45.30;;;;;;5003752;28;20454;-81
2022/09/30 11:09:03;;;;;;;2.23;1.60;;;28.50;43.80;;;;;;4994181;28;20991;-80
2022/09/30 11:11:36;;;;;;;1.73;1.30;;;29.30;42.80;;;;;;4998923;28;20463;-80
2022/09/30 11:14:14;;;;;;;1.50;1.40;;;30.60;40.60;;;;;;4993269;28;20464;-80
2022/09/30 11:16:46;;;;;;;1.57;1.30;;;31.50;38.80;;;;;;4996383;28;20456;-80
2022/09/30 11:19:18;;;;;;;1.77;1.67;;;31.80;36.60;;;;;;4999796;28;20488;-81
2022/09/30 11:21:46;;;;;;;1.27;1.27;;;30.90;38.60;;;;;;5002138;28;20483;-80
2022/09/30 11:24:22;;;;;;;1.90;1.50;;;30.50;39.80;;;;;;5004038;28;20449;-80
2022/09/30 11:26:55;;;;;;;2.13;1.40;;;31.20;39.10;;;;;;4994855;28;20480;-80
2022/09/30 11:29:36;;;;;;;3.47;1.60;;;32.30;36.40;;;;;;4990250;28;20457;-79
2022/09/30 11:32:09;;;;;;;1.40;1.30;;;32.20;37.50;;;;;;4987320;28;20462;-86
2022/09/30 11:34:44;;;;;;;1.30;1.20;;;31.60;36.70;;;;;;5002058;28;20451;-80
2022/09/30 11:37:15;;;;;;;1.50;1.50;;;31.40;37.50;;;;;;5012195;28;20435;-83
2022/09/30 11:40:15;;;;;;;2.10;1.50;;;31.50;36.90;;;;;;5002323;28;20457;-83
2022/09/30 11:42:52;;;;;;;2.50;1.30;;;30.70;37.90;;;;;;4964946;28;20429;-82
2022/09/30 11:45:37;;;;;;;1.30;1.30;;;30.50;38.40;;;;;;4992993;28;20453;-84
2022/09/30 11:48:48;;;;;;;1.60;1.50;;;29.70;39.40;;;;;;4985299;28;20469;-84
2022/09/30 11:51:34;;;;;;;1.60;1.50;;;29.00;40.70;;;;;;4994789;28;20480;-84
2022/09/30 11:54:26;;;;;;;1.43;1.33;;;28.50;41.60;;;;;;4998585;28;20445;-84
2022/09/30 11:57:02;;;;;;;1.63;1.40;;;28.50;43.20;;;;;;4995834;28;20455;-84
2022/09/30 11:59:38;;;;;;;3.13;1.33;;;30.00;40.00;;;;;;4994783;28;20940;-84
2022/09/30 12:02:14;;;;;;;1.60;1.40;;;30.00;39.20;;;;;;4994441;28;20476;-83
2022/09/30 12:04:43;;;;;;;1.20;1.20;;;29.50;40.10;;;;;;4985003;28;20523;-84
2022/09/30 12:07:14;;;;;;;1.50;1.40;;;31.00;39.00;;;;;;4994461;28;20437;-82
2022/09/30 12:09:44;;;;;;;2.40;1.40;;;31.70;36.40;;;;;;4992721;28;20445;-84
2022/09/30 12:12:19;;;;;;;3.70;1.50;;;31.30;37.10;;;;;;4989545;28;20520;-84
2022/09/30 12:15:04;;;;;;;1.30;1.30;;;30.30;37.90;;;;;;4991665;28;20437;-84
2022/09/30 12:17:40;;;;;;;1.77;1.43;;;29.60;39.50;;;;;;4992070;28;20460;-84
2022/09/30 12:20:17;;;;;;;1.40;1.30;;;29.30;40.00;;;;;;4993905;28;20465;-85
2022/09/30 12:22:57;;;;;;;1.40;1.40;;;28.80;41.10;;;;;;4987449;28;20453;-85
2022/09/30 12:25:35;;;;;;;1.67;1.57;;;28.50;41.50;;;;;;4988404;28;20539;-84
2022/09/30 12:31:12;;;;;;;1.53;1.43;;;29.70;39.60;;;;;;4997082;28;20461;-84
2022/09/30 12:33:50;;;;;;;1.27;1.27;;;30.10;39.80;;;;;;4997556;28;20459;-83
2022/09/30 12:36:38;;;;;;;1.60;1.50;;;31.10;38.00;;;;;;4997757;28;20458;-83
2022/09/30 12:39:37;;;;;;;4.03;1.43;;;30.80;38.20;;;;;;5001623;28;20509;-83
2022/09/30 12:42:44;;;;;;;1.30;1.20;;;32.20;37.40;;;;;;5005099;28;20500;-83
2022/09/30 12:45:55;;;;;;;1.90;1.80;;;33.90;34.70;;;;;;4985036;28;20516;-83
2022/09/30 12:48:27;;;;;;;3.43;1.90;;;35.00;32.70;;;;;;5008127;28;20513;-83
2022/09/30 12:50:58;;;;;;;1.70;1.60;;;35.90;31.00;;;;;;5004089;28;20470;-83
2022/09/30 12:53:27;;;;;;;1.70;1.60;;;36.30;30.20;;;;;;4996276;28;20452;-82
2022/09/30 12:56:02;;;;;;;1.90;1.80;;;36.60;29.80;;;;;;4998951;28;20453;-82
2022/09/30 12:58:36;;;;;;;1.60;1.60;;;34.80;30.70;;;;;;4999471;28;20441;-82
2022/09/30 13:01:08;;;;;;;1.73;1.63;;;33.90;33.10;;;;;;4982021;28;20489;-83
2022/09/30 13:03:53;;;;;;;1.90;1.90;;;34.80;32.00;;;;;;4993192;28;20457;-83
2022/09/30 13:06:22;;;;;;;1.63;1.50;;;35.40;31.10;;;;;;5000441;28;20454;-82
2022/09/30 13:09:12;;;;;;;2.23;1.47;;;36.20;30.00;;;;;;5002456;28;20449;-83
2022/09/30 13:11:44;;;;;;;2.07;1.50;;;36.20;29.80;;;;;;4998103;28;20480;-82
2022/09/30 13:14:31;;;;;;;1.80;1.70;;;36.80;29.30;;;;;;4991819;28;20457;-82
2022/09/30 13:17:24;;;;;;;3.40;1.70;;;34.90;30.10;;;;;;4999654;28;20449;-83
2022/09/30 13:20:06;;;;;;;1.77;1.67;;;33.50;32.50;;;;;;4998876;28;20534;-83